メインページ
METAR-TAF:

METAR-TAF

空港 :

グラン・カナリア空港

グラン・カナリア島, スペイン

緯度: 27-56N, 経度: 015-23W, 海抜: 23m

現時点の気象観測

当レポートは28分前の09:00(UTC)に作成
の風 18kt
気温 24°C
湿度 57%
気圧 1016 hPa
視程10km以上
高度2500ftの雲はほとんどない

METAR: GCLP 190900Z 36018KT 9999 FEW025 24/15 Q1016 NOSIG

時間: 10:28 (09:28 UTC)

予報

当レポートは1時間28分前の08:00(UTC)に作成
予報は19日の 09時(UTC)から 20日の 09時(UTC)まで有効
の風 20kt
視程10km以上
高度3500ftの千切れ雲あり
確率 40% :
19日の 09時(UTC)から 19日の 20時(UTC)まで一時的に
の風 20kt、最大30ktの突風を伴う

TAF: GCLP 190800Z 1909/2009 36020KT 9999 BKN035 TX26/1915Z TN20/2005Z PROB40 TEMPO 1909/1920 36020G30KT

4,000以上の空港の気象観測と天気予報(METAR報とTAF報)

利用可能な観測所は地図上に黄色い丸と赤い丸で示す。

丸の上にカーソルを重ねると観測所名を参照できる。

次にクリックすると気象観測と天気予報を参照できる。

マップの切り替え:黒色「×」印の緑ボタンをクリックして拡大、「-」印の緑ボタンをクリックして縮小、緑色の三角印をクリックして隣りの地図に切り替え


METAR-TAF: